Terminal Aerodrome Forecast
Issued by NWS North Platte, NE

Home | Current Version | Previous Version | Text Only | Print | Product List | Glossary On
Versions: 1 2 3 4 5 6 7 8 9 10 11 12 13 14 15 16 17 18 19 20 21 22 23 24 25 26 27 28 29 30 31 32 33
000
FTUS43 KLBF 182300
TAFLBF
TAF
KLBF 182320Z 1900/1924 23003KT 5SM BR OVC007
     FM190300 24003KT 3SM BR SCT004
     FM190600 25003KT 1SM BR SCT002
     FM191600 26005KT 5SM BR SCT150
     FM191800 26007KT P6SM SCT120=

USA.gov is the U.S. government's official web portal to all federal, state and local government web resources and services.